Smock, Pennsylvania
Current Conditions -  °F | °C
As of 3:53 AM on Thursday 23 Oct 2014 (Local Time) from KMGW Reporting Station
Overcast Overcast  
Wind Chill: 46°   Ceiling: 2200
Heat Index: 48°   Visibility: 10mi
Dew Point: 39°   Wind: 5mph
Humidity: 71%   Direction: 300°WNW
Pressure: 30.13"   Gusts: NA
Location:  40°N, 79.78°W
Report Text: KMGW 230753Z AUTO 30004KT 10SM OVC022 09/04 A3013 RMK AO2 SLP205 T00890039 TSNO
Loading
Personal Weather Stations






























Interactive Weather Map
Tropical Storm Tracking
New forecast layout! Learn more

10-Day Weather Forecast

Advertisements
Track Severe Weather on mobile